Time;durP1;ratioP1;P1;durP2;ratioP2;P2;SDS_P1;SDS_P2;PMS_P1;PMS_P2;Temp;Humidity;BMP_temperature;BMP_pressure;BME280_temperature;BME280_humidity;BME280_pressure;Samples;Min_cycle;Max_cycle;Signal;HPM_P1;HPM_P2
2021/08/27 00:01:00;;;;;;;4.53;1.00;;;15.50;99.90;;;;;;8260125;28;20049;-72
2021/08/27 00:05:03;;;;;;;2.58;0.90;;;15.50;99.90;;;;;;8259926;28;20502;-72
2021/08/27 00:09:04;;;;;;;2.00;0.82;;;15.50;99.90;;;;;;8261060;28;20051;-72
2021/08/27 00:13:07;;;;;;;3.80;1.00;;;15.50;99.90;;;;;;8260606;28;20532;-72
2021/08/27 00:17:09;;;;;;;2.65;0.90;;;15.50;99.90;;;;;;8261192;28;20054;-72
2021/08/27 00:21:11;;;;;;;2.65;0.90;;;15.50;99.90;;;;;;8259899;28;20122;-72
2021/08/27 00:25:13;;;;;;;3.28;1.02;;;15.50;99.90;;;;;;8258490;28;20062;-72
2021/08/27 00:29:14;;;;;;;2.08;0.93;;;15.40;99.90;;;;;;8259330;28;20042;-72
2021/08/27 00:33:16;;;;;;;5.90;1.38;;;15.40;99.90;;;;;;8258598;28;20046;-72
2021/08/27 00:37:18;;;;;;;4.60;1.00;;;15.40;99.90;;;;;;8258483;28;20046;-72
2021/08/27 00:41:21;;;;;;;3.70;1.10;;;15.40;99.90;;;;;;8258389;28;20047;-72
2021/08/27 00:45:23;;;;;;;2.58;1.10;;;15.40;99.90;;;;;;8260274;28;20057;-72
2021/08/27 00:49:24;;;;;;;3.63;1.00;;;15.40;99.90;;;;;;8257163;28;20039;-72
2021/08/27 00:53:26;;;;;;;6.57;0.93;;;15.40;99.90;;;;;;8259458;28;20053;-72
2021/08/27 00:57:28;;;;;;;3.15;0.90;;;15.30;99.90;;;;;;8259206;28;20046;-72
2021/08/27 01:01:30;;;;;;;3.17;0.90;;;15.30;99.90;;;;;;8259685;28;20038;-72
2021/08/27 01:05:33;;;;;;;2.80;1.00;;;15.20;99.90;;;;;;8271787;28;20146;-72
2021/08/27 01:09:57;;;;;;;3.33;0.88;;;15.20;99.90;;;;;;8262954;28;20050;-72
2021/08/27 01:14:03;;;;;;;3.08;0.82;;;15.10;99.90;;;;;;8257806;28;20133;-72
2021/08/27 01:18:34;;;;;;;4.80;1.33;;;15.10;99.90;;;;;;8255680;28;20069;-72
2021/08/27 01:23:01;;;;;;;2.28;0.80;;;15.10;99.90;;;;;;8267354;28;20104;-72
2021/08/27 01:27:08;;;;;;;6.40;0.95;;;15.10;99.90;;;;;;8252834;28;20095;-72
2021/08/27 01:31:19;;;;;;;3.42;0.98;;;15.10;99.90;;;;;;8258104;28;20038;-72
2021/08/27 01:35:24;;;;;;;3.53;1.10;;;15.10;99.90;;;;;;8257862;28;20046;-72
2021/08/27 01:39:31;;;;;;;3.33;0.95;;;15.10;99.90;;;;;;8256917;28;20058;-72
2021/08/27 01:43:34;;;;;;;3.22;0.82;;;15.10;99.90;;;;;;8261908;28;20054;-72
2021/08/27 01:47:37;;;;;;;3.55;1.00;;;15.10;99.90;;;;;;8256428;28;20083;-72
2021/08/27 01:51:41;;;;;;;5.30;0.82;;;15.10;99.90;;;;;;8258727;28;20088;-72
2021/08/27 01:55:44;;;;;;;5.68;0.80;;;15.10;99.90;;;;;;8256597;28;20065;-72
2021/08/27 01:59:47;;;;;;;3.42;0.80;;;15.10;99.90;;;;;;8255724;28;20065;-72
2021/08/27 02:03:49;;;;;;;5.53;1.02;;;15.10;99.90;;;;;;8256064;28;20050;-72
2021/08/27 02:07:52;;;;;;;7.88;0.90;;;15.00;99.90;;;;;;8257693;28;20502;-72
2021/08/27 02:11:54;;;;;;;5.47;1.00;;;15.00;99.90;;;;;;8257973;28;20490;-73
2021/08/27 02:15:56;;;;;;;6.43;1.23;;;15.00;99.90;;;;;;8271547;28;20498;-72
2021/08/27 02:19:59;;;;;;;2.83;0.93;;;15.00;99.90;;;;;;8249864;28;20050;-72
2021/08/27 02:24:07;;;;;;;4.03;1.00;;;15.00;99.90;;;;;;8256109;28;20051;-72
2021/08/27 02:28:10;;;;;;;6.22;1.20;;;15.00;99.90;;;;;;8257884;28;20057;-72
2021/08/27 02:32:13;;;;;;;5.72;1.02;;;15.00;99.90;;;;;;8258373;28;20070;-73
2021/08/27 02:36:18;;;;;;;5.13;0.90;;;15.00;99.90;;;;;;8259980;28;20065;-72
2021/08/27 02:40:20;;;;;;;5.22;1.05;;;15.00;99.90;;;;;;8256832;28;20050;-72
2021/08/27 02:44:21;;;;;;;4.25;0.90;;;15.00;99.90;;;;;;8273213;28;20134;-72
2021/08/27 02:48:23;;;;;;;2.45;1.00;;;15.00;99.90;;;;;;8259433;28;20099;-72
2021/08/27 02:52:27;;;;;;;4.40;1.00;;;15.10;99.90;;;;;;8259312;28;20049;-73
2021/08/27 02:56:34;;;;;;;4.63;0.90;;;15.10;99.90;;;;;;8263558;28;20050;-72
2021/08/27 03:00:56;;;;;;;4.63;0.85;;;15.10;99.90;;;;;;8264031;28;20046;-72
2021/08/27 03:05:06;;;;;;;4.32;1.00;;;15.10;99.90;;;;;;8277977;28;20384;-72
2021/08/27 03:09:09;;;;;;;7.60;1.15;;;15.20;99.90;;;;;;8264527;28;20046;-73
2021/08/27 03:13:19;;;;;;;6.55;1.27;;;15.10;99.90;;;;;;8263715;28;20043;-72
2021/08/27 03:17:23;;;;;;;4.30;1.17;;;15.10;99.90;;;;;;8263550;28;20046;-72
2021/08/27 03:21:41;;;;;;;3.72;1.10;;;15.20;99.90;;;;;;8263282;28;20043;-72
2021/08/27 03:25:45;;;;;;;4.55;0.93;;;15.20;99.90;;;;;;8262924;28;20497;-72
2021/08/27 03:29:53;;;;;;;4.03;0.85;;;15.20;99.90;;;;;;8261444;28;20165;-72
2021/08/27 03:33:58;;;;;;;5.72;1.05;;;15.20;99.90;;;;;;8262542;28;20466;-73
2021/08/27 03:38:00;;;;;;;3.15;1.00;;;15.20;99.90;;;;;;8263271;28;20447;-72
2021/08/27 03:42:04;;;;;;;8.15;0.98;;;15.20;99.90;;;;;;8264187;28;20047;-72
2021/08/27 03:46:07;;;;;;;3.72;0.90;;;15.20;99.90;;;;;;8261666;28;20046;-72
2021/08/27 03:50:10;;;;;;;6.63;1.20;;;15.20;99.90;;;;;;8262578;28;20046;-73
2021/08/27 03:54:15;;;;;;;10.02;1.20;;;15.20;99.90;;;;;;8268563;28;20046;-72
2021/08/27 03:58:22;;;;;;;4.57;1.25;;;15.20;99.90;;;;;;8276738;28;20352;-72
2021/08/27 04:02:26;;;;;;;2.75;1.08;;;15.20;99.90;;;;;;8261232;28;20050;-72
2021/08/27 04:06:27;;;;;;;3.30;0.73;;;15.20;99.90;;;;;;8260239;28;20046;-72
2021/08/27 04:10:29;;;;;;;3.75;1.05;;;15.20;99.90;;;;;;8260217;28;20387;-72
2021/08/27 04:14:31;;;;;;;3.92;0.98;;;15.20;99.90;;;;;;8260810;28;20529;-72
2021/08/27 04:18:33;;;;;;;2.75;0.90;;;15.20;99.90;;;;;;8266547;28;20097;-74
2021/08/27 04:22:35;;;;;;;4.55;1.00;;;15.20;99.90;;;;;;8262237;28;20058;-72
2021/08/27 04:26:38;;;;;;;3.33;1.00;;;15.20;99.90;;;;;;8261740;28;20418;-72
2021/08/27 04:30:40;;;;;;;5.07;1.20;;;15.20;99.90;;;;;;8257114;28;20051;-72
2021/08/27 04:34:42;;;;;;;4.38;0.93;;;15.20;99.90;;;;;;8259141;28;20050;-72
2021/08/27 04:38:43;;;;;;;5.10;0.90;;;15.20;99.90;;;;;;8255065;28;20513;-72
2021/08/27 04:42:45;;;;;;;6.50;1.15;;;15.20;99.90;;;;;;8259862;28;20061;-72
2021/08/27 04:46:48;;;;;;;3.78;1.05;;;15.20;99.90;;;;;;8258796;28;20108;-72
2021/08/27 04:50:49;;;;;;;6.03;1.15;;;15.20;99.90;;;;;;8259946;28;20101;-72
2021/08/27 04:54:51;;;;;;;4.10;1.20;;;15.20;99.90;;;;;;8259948;28;20054;-72
2021/08/27 04:58:53;;;;;;;5.38;1.38;;;15.20;99.90;;;;;;8258599;28;20054;-72
2021/08/27 05:02:55;;;;;;;4.00;0.98;;;15.20;99.90;;;;;;8258083;28;20046;-72
2021/08/27 05:06:57;;;;;;;3.83;0.95;;;15.20;99.90;;;;;;8273447;28;20109;-71
2021/08/27 05:10:59;;;;;;;4.18;0.85;;;15.20;99.90;;;;;;8249833;28;20054;-72
2021/08/27 05:15:01;;;;;;;4.05;1.08;;;15.20;99.90;;;;;;8256719;28;20046;-72
2021/08/27 05:19:03;;;;;;;4.43;1.23;;;15.20;99.90;;;;;;8257346;28;20105;-72
2021/08/27 05:23:05;;;;;;;2.45;0.90;;;15.20;99.90;;;;;;8259275;28;20046;-72
2021/08/27 05:27:07;;;;;;;5.93;1.20;;;15.20;99.90;;;;;;8256320;28;20387;-72
2021/08/27 05:31:10;;;;;;;4.65;1.10;;;15.20;99.90;;;;;;8269294;28;20046;-72
2021/08/27 05:35:12;;;;;;;4.47;1.00;;;15.20;99.90;;;;;;8258446;28;20049;-72
2021/08/27 05:39:14;;;;;;;4.28;0.93;;;15.20;99.90;;;;;;8258305;28;20176;-72
2021/08/27 05:43:16;;;;;;;4.60;1.30;;;15.20;99.90;;;;;;8257146;28;20050;-72
2021/08/27 05:47:20;;;;;;;3.60;1.02;;;15.30;99.90;;;;;;8246160;28;20126;-72
2021/08/27 05:51:21;;;;;;;3.95;1.20;;;15.40;99.90;;;;;;8254020;28;20042;-72
2021/08/27 05:55:23;;;;;;;3.92;1.08;;;15.50;99.90;;;;;;8255710;28;20054;-72
2021/08/27 05:59:25;;;;;;;7.13;1.20;;;15.60;99.90;;;;;;8262549;28;20057;-72
2021/08/27 06:03:26;;;;;;;3.97;1.02;;;15.60;99.90;;;;;;8249441;28;20085;-72
2021/08/27 06:07:30;;;;;;;5.43;1.00;;;15.70;99.90;;;;;;8250933;28;20046;-72
2021/08/27 06:11:36;;;;;;;4.00;1.15;;;15.70;99.90;;;;;;8266910;28;20054;-72
2021/08/27 06:15:42;;;;;;;3.58;0.90;;;15.70;99.90;;;;;;8245752;28;20050;-72
2021/08/27 06:19:44;;;;;;;3.93;1.03;;;15.80;99.90;;;;;;8254203;28;21064;-72
2021/08/27 06:23:47;;;;;;;7.38;1.30;;;15.90;99.90;;;;;;8250810;28;20062;-72
2021/08/27 06:27:49;;;;;;;3.45;1.00;;;15.90;99.90;;;;;;8267763;28;20049;-72
2021/08/27 06:31:51;;;;;;;6.25;1.05;;;16.00;99.90;;;;;;8258705;28;20124;-72
2021/08/27 06:35:53;;;;;;;3.45;0.90;;;16.10;99.90;;;;;;8256369;28;20050;-72
2021/08/27 06:39:54;;;;;;;5.20;1.20;;;16.10;99.90;;;;;;8258008;28;20054;-72
2021/08/27 06:43:56;;;;;;;6.43;1.20;;;16.10;99.90;;;;;;8256930;28;20112;-73
2021/08/27 06:47:58;;;;;;;5.50;1.17;;;16.10;99.90;;;;;;8254301;28;20049;-72
2021/08/27 06:51:59;;;;;;;5.10;1.00;;;16.20;99.90;;;;;;8250620;28;20050;-72
2021/08/27 06:56:01;;;;;;;6.50;1.02;;;16.40;99.90;;;;;;8257606;28;20046;-72
2021/08/27 07:00:04;;;;;;;4.43;1.10;;;16.30;99.90;;;;;;8258513;28;20145;-72
2021/08/27 07:04:06;;;;;;;4.30;1.30;;;16.40;99.90;;;;;;8272232;28;20081;-72
2021/08/27 07:08:08;;;;;;;3.25;1.00;;;16.30;99.90;;;;;;8256819;28;20049;-72
2021/08/27 07:12:12;;;;;;;2.35;0.93;;;16.40;99.90;;;;;;8257491;28;20053;-72
2021/08/27 07:16:13;;;;;;;4.90;1.20;;;16.30;99.90;;;;;;8256809;28;20057;-72
2021/08/27 07:20:16;;;;;;;7.43;1.38;;;16.30;99.90;;;;;;8256159;28;20494;-72
2021/08/27 07:24:18;;;;;;;4.00;1.10;;;16.30;99.90;;;;;;8257465;28;20050;-72
2021/08/27 07:28:19;;;;;;;6.60;1.73;;;16.30;99.90;;;;;;8256075;28;20053;-72
2021/08/27 07:32:21;;;;;;;4.05;1.10;;;16.30;99.90;;;;;;8272128;28;20050;-72
2021/08/27 07:36:23;;;;;;;7.07;1.05;;;16.30;99.90;;;;;;8254219;28;20065;-72
2021/08/27 07:40:24;;;;;;;5.05;1.05;;;16.30;99.90;;;;;;8255229;28;20057;-72
2021/08/27 07:44:27;;;;;;;4.32;1.17;;;16.40;99.90;;;;;;8258914;28;20046;-71
2021/08/27 07:48:29;;;;;;;4.18;1.17;;;16.50;99.90;;;;;;8255276;28;20053;-72
2021/08/27 07:52:30;;;;;;;5.93;1.48;;;16.70;99.90;;;;;;8256659;28;20054;-72
2021/08/27 07:56:32;;;;;;;5.22;1.30;;;16.90;99.90;;;;;;8270754;28;20054;-72
2021/08/27 08:00:34;;;;;;;7.05;1.35;;;17.00;99.90;;;;;;8257262;28;20054;-72
2021/08/27 08:04:36;;;;;;;5.40;1.40;;;17.10;99.90;;;;;;8256819;28;20580;-72
2021/08/27 08:08:38;;;;;;;6.40;1.88;;;17.10;99.90;;;;;;8255393;28;20370;-72
2021/08/27 08:12:39;;;;;;;7.47;1.33;;;17.20;99.90;;;;;;8255437;28;20061;-73
2021/08/27 08:16:41;;;;;;;8.15;1.60;;;17.20;99.90;;;;;;8270105;28;20050;-72
2021/08/27 08:20:43;;;;;;;7.57;1.50;;;17.30;99.90;;;;;;8269545;28;20157;-72
2021/08/27 08:24:46;;;;;;;6.43;1.65;;;17.20;99.90;;;;;;8254435;28;20054;-72
2021/08/27 08:28:49;;;;;;;12.65;2.20;;;17.20;99.90;;;;;;8253831;28;20073;-72
2021/08/27 08:32:51;;;;;;;4.50;1.30;;;17.30;99.90;;;;;;8250667;28;20454;-72
2021/08/27 08:36:53;;;;;;;10.45;1.70;;;17.40;99.90;;;;;;8250673;28;20046;-72
2021/08/27 08:40:54;;;;;;;4.22;1.40;;;17.40;99.90;;;;;;8251379;28;20261;-72
2021/08/27 08:44:56;;;;;;;7.10;1.60;;;17.40;99.90;;;;;;8261621;28;20533;-72
2021/08/27 08:48:59;;;;;;;5.70;1.73;;;17.40;99.90;;;;;;8250476;28;20426;-72
2021/08/27 08:53:03;;;;;;;4.03;1.40;;;17.10;99.90;;;;;;8250381;28;20512;-72
2021/08/27 08:57:05;;;;;;;3.33;1.48;;;16.90;99.90;;;;;;8250753;28;20251;-72
2021/08/27 09:01:12;;;;;;;3.08;1.25;;;16.80;99.90;;;;;;8252002;28;20406;-72
2021/08/27 09:05:14;;;;;;;5.13;1.42;;;16.70;99.90;;;;;;8249667;28;20046;-72
2021/08/27 09:09:30;;;;;;;3.88;1.20;;;16.60;99.90;;;;;;8264405;28;20054;-72
2021/08/27 09:13:32;;;;;;;4.28;1.50;;;16.60;99.90;;;;;;8247189;28;23701;-72
2021/08/27 09:17:46;;;;;;;7.07;1.52;;;16.60;99.90;;;;;;8248665;28;20057;-72
2021/08/27 09:21:50;;;;;;;6.43;1.48;;;16.80;99.90;;;;;;8236176;28;20058;-72
2021/08/27 09:25:52;;;;;;;9.52;1.52;;;16.80;99.90;;;;;;8245780;28;20050;-72
2021/08/27 09:29:54;;;;;;;6.30;1.70;;;17.10;99.90;;;;;;8247148;28;20383;-71
2021/08/27 09:33:57;;;;;;;5.13;1.40;;;17.20;99.90;;;;;;8250879;28;20054;-71
2021/08/27 09:37:58;;;;;;;5.32;1.48;;;17.30;99.90;;;;;;8252210;28;20046;-72
2021/08/27 09:42:01;;;;;;;5.07;1.55;;;17.40;99.90;;;;;;8250964;28;20065;-72
2021/08/27 09:46:03;;;;;;;6.32;1.60;;;17.50;99.90;;;;;;8252724;28;20394;-72
2021/08/27 09:50:23;;;;;;;5.32;1.63;;;17.50;99.90;;;;;;8251054;28;20133;-72
2021/08/27 09:54:28;;;;;;;8.25;1.60;;;17.60;99.90;;;;;;8248495;28;20061;-72
2021/08/27 09:58:30;;;;;;;4.22;1.52;;;17.70;99.90;;;;;;8248956;28;20932;-72
2021/08/27 10:02:32;;;;;;;8.20;1.60;;;17.80;99.90;;;;;;8250880;28;20469;-72
2021/08/27 10:06:34;;;;;;;4.25;1.67;;;18.00;99.90;;;;;;8249525;28;20056;-72
2021/08/27 10:10:35;;;;;;;6.55;1.48;;;18.00;99.90;;;;;;8253512;28;20062;-72
2021/08/27 10:14:38;;;;;;;5.80;1.70;;;18.10;99.90;;;;;;8251202;28;20145;-73
2021/08/27 10:18:41;;;;;;;5.97;1.77;;;18.20;99.90;;;;;;8249476;28;20497;-72
2021/08/27 10:22:42;;;;;;;5.20;1.80;;;18.30;99.90;;;;;;8246331;28;20402;-72
2021/08/27 10:26:45;;;;;;;6.38;1.83;;;18.30;99.90;;;;;;8246543;28;20169;-72
2021/08/27 10:30:59;;;;;;;6.07;2.20;;;18.30;99.90;;;;;;8252436;28;20038;-72
2021/08/27 10:35:01;;;;;;;6.75;1.70;;;18.20;99.90;;;;;;8244270;28;20068;-72
2021/08/27 10:39:03;;;;;;;5.95;1.42;;;18.10;99.90;;;;;;8246523;28;20062;-72
2021/08/27 10:43:05;;;;;;;4.90;1.40;;;18.00;99.90;;;;;;8246221;28;20050;-72
2021/08/27 10:47:08;;;;;;;3.20;1.30;;;17.90;99.90;;;;;;8249468;28;20386;-72
2021/08/27 10:51:30;;;;;;;7.10;1.50;;;17.80;99.90;;;;;;8250448;28;20611;-72
2021/08/27 10:55:37;;;;;;;5.18;1.35;;;17.60;99.90;;;;;;8248449;28;20061;-72
2021/08/27 10:59:39;;;;;;;6.10;1.92;;;17.60;99.90;;;;;;8245909;28;20046;-72
2021/08/27 11:04:26;;;;;;;5.72;1.67;;;17.70;99.90;;;;;;8246830;28;20081;-72
2021/08/27 11:08:32;;;;;;;7.32;1.40;;;17.90;99.90;;;;;;8257483;28;20498;-72
2021/08/27 11:12:34;;;;;;;4.10;1.30;;;17.90;99.90;;;;;;8247841;28;20065;-72
2021/08/27 11:16:39;;;;;;;5.70;1.13;;;17.80;99.90;;;;;;8250132;28;20309;-72
2021/08/27 11:20:41;;;;;;;4.72;1.00;;;17.50;99.90;;;;;;8252611;28;20042;-72
2021/08/27 11:25:03;;;;;;;2.40;1.02;;;17.20;99.90;;;;;;8252763;28;20046;-72
2021/08/27 11:29:34;;;;;;;6.07;0.98;;;17.10;99.90;;;;;;8250675;28;20406;-72
2021/08/27 11:33:49;;;;;;;6.10;0.98;;;17.00;99.90;;;;;;8253017;28;20351;-72
2021/08/27 11:38:05;;;;;;;6.18;1.00;;;17.00;99.90;;;;;;8255283;28;20064;-72
2021/08/27 11:42:07;;;;;;;4.05;1.23;;;17.00;99.90;;;;;;8256384;28;20054;-72
2021/08/27 11:46:25;;;;;;;4.28;1.13;;;17.00;99.90;;;;;;8254916;28;20051;-72
2021/08/27 11:50:38;;;;;;;8.32;1.52;;;17.00;99.90;;;;;;8256117;28;20394;-72
2021/08/27 11:54:41;;;;;;;7.93;1.42;;;17.10;99.90;;;;;;8255324;28;20054;-72
2021/08/27 11:58:47;;;;;;;5.97;1.38;;;17.10;99.90;;;;;;8260744;28;20054;-72
2021/08/27 12:02:52;;;;;;;5.93;1.50;;;17.30;99.90;;;;;;8255235;28;20061;-72
2021/08/27 12:07:14;;;;;;;6.57;1.60;;;17.40;99.90;;;;;;8256024;28;20057;-72
2021/08/27 12:11:31;;;;;;;6.07;1.40;;;17.50;99.90;;;;;;8259432;28;20645;-72
2021/08/27 12:15:37;;;;;;;7.03;1.40;;;17.70;99.90;;;;;;8256131;28;20053;-72
2021/08/27 12:19:39;;;;;;;5.88;1.50;;;17.80;99.90;;;;;;8255159;28;20054;-72
2021/08/27 12:23:41;;;;;;;4.88;1.40;;;18.00;99.90;;;;;;8256282;28;20086;-72
2021/08/27 12:27:51;;;;;;;5.05;1.60;;;18.20;99.90;;;;;;8253733;28;20082;-72
2021/08/27 12:31:53;;;;;;;5.68;1.50;;;18.30;99.90;;;;;;8255336;28;20054;-72
2021/08/27 12:35:56;;;;;;;8.52;1.80;;;18.40;99.90;;;;;;8269612;28;20092;-71
2021/08/27 12:39:57;;;;;;;8.57;2.17;;;18.60;99.90;;;;;;8254249;28;20054;-72
2021/08/27 12:44:09;;;;;;;9.20;1.77;;;18.50;99.90;;;;;;8253067;28;20058;-72
2021/08/27 12:48:16;;;;;;;7.63;1.65;;;18.50;99.90;;;;;;8252498;28;20148;-72
2021/08/27 12:52:17;;;;;;;6.38;2.08;;;18.40;99.90;;;;;;8253243;28;20046;-72
2021/08/27 12:56:22;;;;;;;7.27;1.80;;;18.40;99.90;;;;;;8253854;28;20046;-72
2021/08/27 13:00:27;;;;;;;6.95;1.52;;;18.40;99.90;;;;;;8255248;28;20340;-72
2021/08/27 13:04:49;;;;;;;7.90;1.63;;;18.60;99.90;;;;;;8252637;28;20058;-72
2021/08/27 13:09:03;;;;;;;8.23;2.00;;;18.70;99.90;;;;;;8246445;28;20525;-72
2021/08/27 13:13:23;;;;;;;6.95;1.48;;;18.80;99.90;;;;;;8252283;28;20043;-72
2021/08/27 13:17:25;;;;;;;8.07;1.90;;;18.90;99.90;;;;;;8250734;28;20050;-72
2021/08/27 13:21:36;;;;;;;6.60;1.92;;;19.00;99.90;;;;;;8251130;28;20054;-72
2021/08/27 13:25:47;;;;;;;5.35;1.95;;;19.00;99.90;;;;;;8250524;28;20058;-72
2021/08/27 13:29:49;;;;;;;7.40;2.08;;;19.00;99.90;;;;;;8238472;28;20065;-72
2021/08/27 13:33:51;;;;;;;8.77;2.97;;;19.10;99.90;;;;;;8249817;28;20054;-72
2021/08/27 13:37:53;;;;;;;5.60;2.00;;;19.20;99.90;;;;;;8249395;28;20061;-73
2021/08/27 13:41:55;;;;;;;7.82;2.13;;;19.30;99.90;;;;;;8241844;28;20081;-72
2021/08/27 13:45:56;;;;;;;7.25;2.00;;;19.30;99.90;;;;;;8251707;28;20061;-72
2021/08/27 13:49:58;;;;;;;6.90;1.90;;;19.40;99.90;;;;;;8252199;28;20430;-72
2021/08/27 13:54:04;;;;;;;7.22;2.40;;;19.40;99.90;;;;;;8251365;28;20042;-72
2021/08/27 13:58:06;;;;;;;6.40;2.20;;;19.40;99.90;;;;;;8252131;28;20000;-72
2021/08/27 14:02:12;;;;;;;4.03;1.50;;;19.40;99.90;;;;;;8251743;28;20286;-73
2021/08/27 14:06:14;;;;;;;;;;;19.50;99.90;;;;;;8249891;28;19925;-72
2021/08/27 14:10:16;;;;;;;4.38;1.30;;;19.40;99.90;;;;;;8251745;28;19952;-72
2021/08/27 14:14:18;;;;;;;6.18;1.60;;;19.40;99.90;;;;;;8250604;28;20085;-74
2021/08/27 14:18:19;;;;;;;6.35;1.63;;;19.40;99.90;;;;;;8251659;28;20109;-72
2021/08/27 14:22:21;;;;;;;7.10;1.80;;;19.40;99.90;;;;;;8253414;28;20050;-72
2021/08/27 14:26:23;;;;;;;6.70;1.70;;;19.50;99.90;;;;;;8249635;28;20050;-71
2021/08/27 14:30:25;;;;;;;8.00;1.70;;;19.50;99.90;;;;;;8252707;28;19925;-72
2021/08/27 14:34:27;;;;;;;;;;;19.50;99.90;;;;;;8248912;28;19934;-71
2021/08/27 14:38:29;;;;;;;;;;;19.60;99.90;;;;;;8251842;28;20368;-71
2021/08/27 14:42:31;;;;;;;;;;;19.60;99.90;;;;;;8264878;28;19941;-72
2021/08/27 14:46:33;;;;;;;;;;;19.60;99.90;;;;;;8266689;28;19925;-72
2021/08/27 14:50:34;;;;;;;;;;;19.60;99.90;;;;;;8271370;28;20381;-72
2021/08/27 14:54:36;;;;;;;;;;;19.60;99.90;;;;;;8273204;28;20262;-72
2021/08/27 14:58:38;;;;;;;;;;;19.50;99.90;;;;;;8273323;28;19921;-72
2021/08/27 15:02:41;;;;;;;6.87;1.90;;;19.40;99.90;;;;;;8258484;28;19922;-72
2021/08/27 15:06:43;;;;;;;12.98;2.35;;;19.30;99.90;;;;;;8257671;28;19922;-71
2021/08/27 15:10:45;;;;;;;;;;;19.30;99.90;;;;;;8258408;28;20191;-72
2021/08/27 15:14:47;;;;;;;;;;;19.20;99.90;;;;;;8255927;28;19930;-72
2021/08/27 15:18:48;;;;;;;;;;;19.20;99.90;;;;;;8255970;28;19926;-72
2021/08/27 15:22:50;;;;;;;;;;;19.30;99.90;;;;;;8251765;28;20427;-72
2021/08/27 15:26:52;;;;;;;;;;;19.40;99.90;;;;;;8267906;28;19933;-72
2021/08/27 15:30:54;;;;;;;;;;;19.60;99.90;;;;;;8253688;28;20016;-72
2021/08/27 15:34:56;;;;;;;;;;;19.70;99.90;;;;;;8251554;28;19926;-72
2021/08/27 15:38:58;;;;;;;;;;;19.80;99.90;;;;;;8252025;28;19977;-72
2021/08/27 15:42:59;;;;;;;;;;;19.70;99.90;;;;;;8254713;28;19934;-72
2021/08/27 15:47:01;;;;;;;;;;;19.80;99.90;;;;;;8250893;28;19925;-72
2021/08/27 15:51:03;;;;;;;;;;;19.80;99.90;;;;;;8252095;28;19929;-72
2021/08/27 15:55:05;;;;;;;;;;;20.00;99.90;;;;;;8256786;28;19925;-73
2021/08/27 15:59:07;;;;;;;;;;;20.00;99.90;;;;;;8249732;28;20385;-72
2021/08/27 16:03:09;;;;;;;;;;;20.10;99.90;;;;;;8250598;28;19926;-72
2021/08/27 16:07:11;;;;;;;;;;;20.00;99.90;;;;;;8251853;28;20370;-72
2021/08/27 16:11:13;;;;;;;;;;;19.90;99.90;;;;;;8267835;28;19926;-72
2021/08/27 16:15:14;;;;;;;;;;;19.60;99.90;;;;;;8251378;28;19938;-72
2021/08/27 16:19:16;;;;;;;7.97;2.03;;;19.40;99.90;;;;;;8249533;28;20003;-72
2021/08/27 16:23:18;;;;;;;8.55;2.20;;;19.30;99.90;;;;;;8251230;28;20482;-72
2021/08/27 16:27:20;;;;;;;10.25;1.90;;;19.20;99.90;;;;;;8249188;28;20384;-72
2021/08/27 16:31:22;;;;;;;5.60;1.50;;;19.20;99.90;;;;;;8266248;28;20051;-72
2021/08/27 16:35:23;;;;;;;7.80;2.00;;;19.30;99.90;;;;;;8239932;28;20042;-72
2021/08/27 16:39:25;;;;;;;5.72;1.80;;;19.60;99.90;;;;;;8249376;28;20129;-72
2021/08/27 16:43:27;;;;;;;6.43;1.70;;;19.80;99.90;;;;;;8252005;28;20058;-72
2021/08/27 16:47:28;;;;;;;5.82;1.83;;;19.70;99.90;;;;;;8250431;28;20046;-72
2021/08/27 16:51:32;;;;;;;6.15;1.70;;;19.50;99.90;;;;;;8253884;28;20072;-72
2021/08/27 16:55:34;;;;;;;7.50;1.98;;;19.40;99.90;;;;;;8250582;28;20045;-72
2021/08/27 16:59:36;;;;;;;6.03;1.45;;;19.40;99.90;;;;;;8238936;28;20291;-72
2021/08/27 17:03:38;;;;;;;6.32;1.65;;;19.40;99.90;;;;;;8251805;28;20391;-72
2021/08/27 17:07:40;;;;;;;5.65;1.48;;;19.20;99.90;;;;;;8251186;28;20057;-72
2021/08/27 17:11:41;;;;;;;4.78;1.33;;;19.00;99.90;;;;;;8266913;28;20145;-72
2021/08/27 17:15:43;;;;;;;4.68;1.30;;;18.90;99.90;;;;;;8229076;28;20418;-72
2021/08/27 17:19:45;;;;;;;5.35;1.38;;;18.80;99.90;;;;;;8239168;28;20046;-72
2021/08/27 17:23:47;;;;;;;7.75;1.30;;;18.80;99.90;;;;;;8250124;28;20050;-72
2021/08/27 17:27:49;;;;;;;5.80;1.50;;;18.80;99.90;;;;;;8249934;28;20054;-72
2021/08/27 17:31:51;;;;;;;4.97;1.77;;;18.70;99.90;;;;;;8250527;28;20054;-72
2021/08/27 17:35:53;;;;;;;6.50;1.42;;;18.60;99.90;;;;;;8249454;28;20042;-72
2021/08/27 17:39:54;;;;;;;8.50;1.63;;;18.60;99.90;;;;;;8244721;28;20053;-72
2021/08/27 17:43:56;;;;;;;5.75;1.30;;;18.50;99.90;;;;;;8265048;28;20046;-72
2021/08/27 17:47:58;;;;;;;7.20;1.67;;;18.40;99.90;;;;;;8250619;28;20061;-72
2021/08/27 17:51:59;;;;;;;5.60;1.50;;;18.40;99.90;;;;;;8251360;28;20050;-72
2021/08/27 17:56:01;;;;;;;7.45;1.98;;;18.40;99.90;;;;;;8241241;28;20099;-72
2021/08/27 18:00:17;;;;;;;6.75;1.50;;;18.30;99.90;;;;;;8250008;28;20080;-72
2021/08/27 18:04:19;;;;;;;7.28;1.95;;;18.30;99.90;;;;;;8249122;28;20137;-72
2021/08/27 18:08:20;;;;;;;6.85;1.92;;;18.20;99.90;;;;;;8250105;28;20043;-72
2021/08/27 18:12:22;;;;;;;8.15;1.77;;;18.20;99.90;;;;;;8250107;28;20053;-72
2021/08/27 18:16:24;;;;;;;6.25;1.63;;;18.20;99.90;;;;;;8250450;28;20070;-72
2021/08/27 18:20:26;;;;;;;6.90;2.00;;;18.20;99.90;;;;;;8251567;28;20084;-72
2021/08/27 18:24:27;;;;;;;6.53;1.95;;;18.20;99.90;;;;;;8252315;28;20049;-72
2021/08/27 18:28:29;;;;;;;7.07;1.98;;;18.20;99.90;;;;;;8255231;28;20050;-72
2021/08/27 18:32:31;;;;;;;6.82;1.70;;;18.10;99.90;;;;;;8254996;28;20502;-72
2021/08/27 18:36:33;;;;;;;9.13;1.95;;;18.10;99.90;;;;;;8245387;28;20509;-72
2021/08/27 18:40:34;;;;;;;8.40;1.90;;;18.00;99.90;;;;;;8255682;28;20054;-72
2021/08/27 18:44:36;;;;;;;4.97;1.70;;;18.00;99.90;;;;;;8269949;28;20402;-72
2021/08/27 18:48:38;;;;;;;7.53;1.70;;;18.00;99.90;;;;;;8256534;28;20057;-72
2021/08/27 18:52:40;;;;;;;9.38;2.35;;;17.90;99.90;;;;;;8253820;28;20490;-72
2021/08/27 18:56:43;;;;;;;7.10;1.95;;;17.90;99.90;;;;;;8255500;28;20121;-72
2021/08/27 19:00:45;;;;;;;6.80;1.90;;;17.90;99.90;;;;;;8255471;28;20367;-72
2021/08/27 19:04:48;;;;;;;8.05;1.95;;;17.90;99.90;;;;;;8256060;28;20042;-72
2021/08/27 19:08:50;;;;;;;6.18;1.65;;;17.80;99.90;;;;;;8254041;28;20391;-72
2021/08/27 19:12:51;;;;;;;5.88;1.80;;;17.80;99.90;;;;;;8255198;28;20047;-72
2021/08/27 19:16:53;;;;;;;5.93;1.90;;;17.70;99.90;;;;;;8254265;28;20418;-72
2021/08/27 19:20:55;;;;;;;7.60;2.00;;;17.70;99.90;;;;;;8252456;28;20414;-72
2021/08/27 19:24:57;;;;;;;7.78;2.20;;;17.70;99.90;;;;;;8252213;28;20038;-72
2021/08/27 19:28:58;;;;;;;7.20;1.75;;;17.60;99.90;;;;;;8255908;28;20566;-73
2021/08/27 19:33:00;;;;;;;8.63;2.00;;;17.60;99.90;;;;;;8267295;28;20086;-72
2021/08/27 19:37:02;;;;;;;8.40;1.70;;;17.60;99.90;;;;;;8250295;28;20065;-72
2021/08/27 19:41:04;;;;;;;9.02;2.58;;;17.60;99.90;;;;;;8247096;28;20443;-72
2021/08/27 19:45:06;;;;;;;7.68;1.92;;;17.50;99.90;;;;;;8239392;28;20061;-72
2021/08/27 19:49:08;;;;;;;11.63;2.28;;;17.50;99.90;;;;;;8262077;28;20505;-72
2021/08/27 19:53:10;;;;;;;6.28;1.92;;;17.50;99.90;;;;;;8252632;28;20046;-72
2021/08/27 19:57:12;;;;;;;12.60;2.35;;;17.40;99.90;;;;;;8255476;28;23922;-72
2021/08/27 20:01:14;;;;;;;7.05;1.90;;;17.40;99.90;;;;;;8255731;28;20525;-72
2021/08/27 20:05:17;;;;;;;7.00;1.92;;;17.40;99.90;;;;;;8255494;28;20074;-72
2021/08/27 20:09:18;;;;;;;5.97;1.80;;;17.40;99.90;;;;;;8255095;28;20049;-72
2021/08/27 20:13:20;;;;;;;8.40;1.88;;;17.40;99.90;;;;;;8269831;28;20046;-72
2021/08/27 20:17:22;;;;;;;6.35;2.30;;;17.40;99.90;;;;;;8255511;28;20050;-72
2021/08/27 20:21:24;;;;;;;9.27;2.50;;;17.40;99.90;;;;;;8255283;28;20054;-72
2021/08/27 20:25:27;;;;;;;6.57;1.90;;;17.30;99.90;;;;;;8250152;28;20141;-72
2021/08/27 20:29:29;;;;;;;6.13;1.70;;;17.30;99.90;;;;;;8249154;28;20141;-72
2021/08/27 20:33:30;;;;;;;9.02;2.20;;;17.30;99.90;;;;;;8255419;28;20050;-72
2021/08/27 20:37:32;;;;;;;6.43;2.10;;;17.30;99.90;;;;;;8255314;28;20055;-72
2021/08/27 20:41:34;;;;;;;11.05;2.10;;;17.20;99.90;;;;;;8268515;28;20050;-72
2021/08/27 20:45:36;;;;;;;9.63;2.10;;;17.20;99.90;;;;;;8254737;28;20054;-72
2021/08/27 20:49:37;;;;;;;4.85;2.03;;;17.20;99.90;;;;;;8252577;28;20359;-72
2021/08/27 20:53:39;;;;;;;8.48;2.60;;;17.20;99.90;;;;;;8268475;28;20518;-72
2021/08/27 20:57:41;;;;;;;7.93;2.33;;;17.20;99.90;;;;;;8253795;28;20050;-72
2021/08/27 21:01:42;;;;;;;7.35;1.95;;;17.20;99.90;;;;;;8257859;28;20104;-72
2021/08/27 21:05:45;;;;;;;6.10;2.20;;;17.20;99.90;;;;;;8261547;28;20498;-72
2021/08/27 21:09:47;;;;;;;5.60;1.92;;;17.20;99.90;;;;;;8276996;28;20042;-72
2021/08/27 21:13:49;;;;;;;6.85;2.05;;;17.20;99.90;;;;;;8275994;28;20050;-72
2021/08/27 21:17:51;;;;;;;9.48;2.63;;;17.20;99.90;;;;;;8258597;28;20387;-72